Time;durP1;ratioP1;P1;durP2;ratioP2;P2;SDS_P1;SDS_P2;PMS_P1;PMS_P2;Temp;Humidity;BMP_temperature;BMP_pressure;BME280_temperature;BME280_humidity;BME280_pressure;Samples;Min_cycle;Max_cycle;Signal;HPM_P1;HPM_P2
2023/11/20 02:48:54;;;;;;;8.52;1.63;;;;;;;9.24;100.00;99517.06;1653248;23;21563;-95
2023/11/20 03:10:26;;;;;;;9.23;1.20;;;;;;;9.28;100.00;99536.88;5044595;23;20041;-96
2023/11/20 03:13:15;;;;;;;10.50;1.42;;;;;;;9.34;100.00;99538.88;4891135;29;20052;-96
2023/11/20 03:16:13;;;;;;;13.90;1.25;;;;;;;9.30;100.00;99541.00;4890031;24;20053;-96
2023/11/20 03:19:29;;;;;;;12.03;1.70;;;;;;;9.34;100.00;99543.31;4846225;29;20128;-96
2023/11/20 03:22:09;;;;;;;8.98;1.50;;;;;;;9.26;100.00;99549.38;4826813;29;20062;-96
2023/11/20 03:25:12;;;;;;;7.15;1.38;;;;;;;9.24;100.00;99560.09;4856811;29;20169;-94
2023/11/20 03:27:57;;;;;;;7.72;1.05;;;;;;;9.23;100.00;99553.19;4826175;29;20046;-94
2023/11/20 03:30:38;;;;;;;11.50;1.33;;;;;;;9.26;100.00;99558.13;4832693;29;20042;-95
2023/11/20 03:33:17;;;;;;;8.95;1.08;;;;;;;9.29;100.00;99560.44;4835946;29;20094;-94
2023/11/20 03:36:03;;;;;;;6.32;1.00;;;;;;;9.28;100.00;99564.09;4860311;29;20136;-96
2023/11/20 03:39:20;;;;;;;8.05;1.35;;;;;;;9.29;100.00;99563.09;4836585;29;20099;-96
2023/11/20 03:41:53;;;;;;;;;;;;;;;9.24;100.00;99567.16;4828850;29;20046;-95
2023/11/20 03:44:57;;;;;;;13.05;1.00;;;;;;;9.25;100.00;99582.81;4854098;29;19939;-96
2023/11/20 04:29:51;;;;;;;5.22;0.70;;;;;;;9.34;100.00;99641.72;4742577;29;20079;-96
2023/11/20 04:33:46;;;;;;;7.60;1.10;;;;;;;9.36;100.00;99647.69;4752268;30;20050;-95
2023/11/20 05:05:35;;;;;;;0.85;0.30;;;;;;;9.71;100.00;99697.84;4812689;29;20042;-96
2023/11/20 05:09:26;;;;;;;1.80;0.30;;;;;;;9.79;100.00;99708.41;4789666;29;20145;-96
2023/11/20 05:13:02;;;;;;;2.17;0.32;;;;;;;9.84;100.00;99722.97;4780537;29;20039;-96
2023/11/20 05:21:15;;;;;;;1.67;0.43;;;;;;;9.91;100.00;99729.25;4766105;29;20475;-96
2023/11/20 05:25:32;;;;;;;1.75;0.40;;;;;;;9.97;100.00;99739.19;4818190;29;20632;-96
2023/11/20 05:33:28;;;;;;;;;;;;;;;;;;;;;
2023/11/20 05:51:29;;;;;;;0.70;0.25;;;;;;;10.21;100.00;99782.53;4808524;29;20054;-96
2023/11/20 06:02:06;;;;;;;0.88;0.20;;;;;;;10.25;100.00;99801.53;5672329;23;20051;-96
2023/11/20 06:04:32;;;;;;;0.93;0.20;;;;;;;10.31;100.00;99814.09;4850284;29;20041;-96
2023/11/20 06:06:57;;;;;;;2.13;0.30;;;;;;;10.32;100.00;99813.13;4885597;23;20032;-95
2023/11/20 06:09:26;;;;;;;1.92;1.52;;;;;;;10.36;100.00;99803.06;4851007;29;20032;-96
2023/11/20 06:11:52;;;;;;;0.10;0.10;;;;;;;10.35;100.00;99815.44;4871157;29;20064;-96
2023/11/20 06:14:18;;;;;;;0.43;0.10;;;;;;;10.37;100.00;99816.13;4870385;29;20039;-96
2023/11/20 06:32:08;;;;;;;0.85;0.70;;;;;;;10.39;100.00;99866.16;4929007;23;20048;-96
2023/11/20 06:34:35;;;;;;;2.28;0.30;;;;;;;10.41;100.00;99875.59;4885704;29;20040;-95
2023/11/20 06:37:01;;;;;;;0.43;0.20;;;;;;;10.47;100.00;99876.81;4914603;23;20060;-96
2023/11/20 06:39:27;;;;;;;0.90;0.90;;;;;;;10.42;100.00;99882.53;4902646;29;20044;-95
2023/11/20 06:41:52;;;;;;;0.52;0.13;;;;;;;10.45;100.00;99896.41;4894027;29;20042;-95
2023/11/20 06:44:22;;;;;;;0.68;0.10;;;;;;;10.41;100.00;99887.97;4902501;29;20124;-96
2023/11/20 06:46:48;;;;;;;0.20;0.10;;;;;;;10.38;100.00;99902.28;4919232;29;20268;-94
2023/11/20 06:49:14;;;;;;;0.40;0.13;;;;;;;10.41;100.00;99923.16;4887462;29;20389;-96
2023/11/20 06:51:43;;;;;;;1.95;0.20;;;;;;;10.41;100.00;99902.00;4874868;29;20047;-95
2023/11/20 06:54:12;;;;;;;4.00;2.22;;;;;;;10.47;100.00;99927.00;4871089;29;20036;-94
2023/11/20 06:56:38;;;;;;;1.60;0.88;;;;;;;10.46;100.00;99935.06;4922440;29;20099;-94
2023/11/20 06:59:04;;;;;;;2.03;0.43;;;;;;;10.45;100.00;99930.75;4868516;29;20399;-93
2023/11/20 07:01:30;;;;;;;2.97;0.32;;;;;;;10.42;100.00;99934.53;4883387;29;20040;-96
2023/11/20 07:03:59;;;;;;;0.80;0.10;;;;;;;10.46;100.00;99959.69;4899651;29;20032;-96
2023/11/20 07:06:26;;;;;;;0.20;0.10;;;;;;;10.48;100.00;99963.00;4867916;29;20047;-94
2023/11/20 07:08:54;;;;;;;3.28;1.95;;;;;;;10.45;100.00;99965.09;4868534;29;20126;-95
2023/11/20 07:11:21;;;;;;;2.30;0.22;;;;;;;10.46;100.00;99978.19;4886664;29;20040;-95
2023/11/20 07:13:47;;;;;;;2.13;0.50;;;;;;;10.43;100.00;99992.50;4866781;29;21045;-96
2023/11/20 07:16:14;;;;;;;0.55;0.10;;;;;;;10.40;100.00;99986.72;4884832;29;20040;-96
2023/11/20 07:18:40;;;;;;;1.05;0.10;;;;;;;10.37;100.00;99995.75;4898264;29;20040;-95
2023/11/20 07:21:06;;;;;;;1.08;0.20;;;;;;;10.39;100.00;100011.47;4896832;29;20045;-96
2023/11/20 07:23:41;;;;;;;1.67;0.20;;;;;;;10.39;100.00;100006.16;4888855;29;20035;-95
2023/11/20 07:26:18;;;;;;;3.33;0.30;;;;;;;10.40;100.00;100010.50;4891196;29;20047;-96
2023/11/20 07:28:47;;;;;;;0.22;0.10;;;;;;;10.38;100.00;100025.66;4906872;29;20491;-95
2023/11/20 07:31:13;;;;;;;3.83;0.25;;;;;;;10.37;100.00;100008.97;4887716;29;20036;-96
2023/11/20 07:33:43;;;;;;;3.75;0.60;;;;;;;10.37;100.00;100021.34;4880931;29;20024;-93
2023/11/20 07:36:16;;;;;;;1.25;0.25;;;;;;;10.34;100.00;100043.63;4906539;29;20040;-96
2023/11/20 07:38:42;;;;;;;1.17;0.20;;;;;;;10.31;100.00;100043.94;4898641;29;20095;-94
2023/11/20 07:41:19;;;;;;;3.25;0.30;;;;;;;10.30;100.00;100052.84;4889740;29;20402;-95
2023/11/20 07:43:52;;;;;;;2.05;0.20;;;;;;;10.30;100.00;100060.75;4886817;29;20031;-96
2023/11/20 07:46:24;;;;;;;2.00;0.20;;;;;;;10.31;100.00;100062.41;4880542;29;20051;-96
2023/11/20 07:48:50;;;;;;;2.75;0.40;;;;;;;10.22;100.00;100050.97;4893189;29;20120;-96
2023/11/20 07:51:16;;;;;;;4.40;0.80;;;;;;;10.25;100.00;100074.44;4909510;29;20059;-96
2023/11/20 07:53:43;;;;;;;2.20;0.20;;;;;;;10.33;100.00;100080.75;4909787;29;20045;-95
2023/11/20 07:56:12;;;;;;;3.22;0.30;;;;;;;10.28;100.00;100084.69;4893312;29;20040;-95
2023/11/20 07:58:39;;;;;;;2.92;0.28;;;;;;;10.34;100.00;100093.81;4904510;29;20068;-96
2023/11/20 08:01:07;;;;;;;1.80;0.20;;;;;;;10.25;100.00;100092.09;4882232;29;20176;-95
2023/11/20 08:03:33;;;;;;;2.33;0.38;;;;;;;10.32;100.00;100106.34;4899831;29;20044;-96
2023/11/20 08:05:59;;;;;;;2.33;0.30;;;;;;;10.33;100.00;100102.72;4866130;29;20491;-96
2023/11/20 08:08:25;;;;;;;3.80;0.50;;;;;;;10.34;100.00;100114.09;4899945;29;20494;-96
2023/11/20 08:10:51;;;;;;;3.15;0.93;;;;;;;10.40;100.00;100124.09;4882502;29;20040;-94
2023/11/20 08:13:20;;;;;;;8.23;0.73;;;;;;;10.34;100.00;100116.75;4886714;29;20036;-95
2023/11/20 08:15:55;;;;;;;4.13;0.57;;;;;;;10.35;100.00;100123.72;4882378;29;20044;-94
2023/11/20 08:18:21;;;;;;;4.35;0.50;;;;;;;10.35;100.00;100139.56;4913827;29;20036;-95
2023/11/20 08:20:48;;;;;;;6.70;0.40;;;;;;;10.22;100.00;100150.50;4886540;29;20097;-96
2023/11/20 08:23:14;;;;;;;3.42;0.40;;;;;;;10.21;100.00;100147.00;4893951;29;20044;-96
2023/11/20 08:25:40;;;;;;;4.07;0.93;;;;;;;10.20;100.00;100158.56;4891882;29;20495;-96
2023/11/20 08:28:07;;;;;;;5.10;0.73;;;;;;;10.17;100.00;100156.22;4923138;29;20047;-96
2023/11/20 08:30:34;;;;;;;4.55;0.45;;;;;;;10.23;100.00;100175.91;4868037;29;20127;-96
2023/11/20 08:33:00;;;;;;;4.28;0.80;;;;;;;10.16;100.00;100171.22;4882167;29;20119;-96
2023/11/20 08:35:26;;;;;;;5.15;0.50;;;;;;;10.20;100.00;100184.97;4888706;29;20048;-96
2023/11/20 08:37:52;;;;;;;7.05;0.80;;;;;;;10.22;100.00;100196.25;4871303;29;20087;-96
2023/11/20 08:40:18;;;;;;;2.20;0.38;;;;;;;10.24;100.00;100204.00;4892954;29;20044;-96
2023/11/20 08:42:45;;;;;;;4.20;0.63;;;;;;;10.23;100.00;100204.97;4875572;29;20043;-96
2023/11/20 08:45:11;;;;;;;2.10;0.47;;;;;;;10.28;100.00;100213.28;4887156;29;20090;-96
2023/11/20 08:47:39;;;;;;;3.17;0.63;;;;;;;10.25;100.00;100216.22;4873268;29;20032;-96
2023/11/20 08:50:09;;;;;;;5.40;0.70;;;;;;;10.33;100.00;100226.06;4873744;29;20040;-96
2023/11/20 08:52:36;;;;;;;2.10;0.50;;;;;;;10.29;100.00;100225.50;4886372;29;20583;-96
2023/11/20 08:55:01;;;;;;;5.90;0.80;;;;;;;10.28;100.00;100229.13;4884541;29;20115;-94
2023/11/20 08:57:27;;;;;;;6.40;0.60;;;;;;;10.35;100.00;100232.03;4897740;29;20582;-95
2023/11/20 08:59:53;;;;;;;9.40;0.90;;;;;;;10.35;100.00;100232.84;4885538;29;20032;-96
2023/11/20 09:02:19;;;;;;;3.80;0.65;;;;;;;10.34;100.00;100236.47;4883265;29;20068;-96
2023/11/20 09:04:44;;;;;;;10.68;1.20;;;;;;;10.35;100.00;100237.31;4911134;29;20551;-95
2023/11/20 09:07:10;;;;;;;4.38;0.75;;;;;;;10.32;100.00;100245.53;4880408;29;20039;-96
2023/11/20 09:09:36;;;;;;;7.80;0.85;;;;;;;10.27;100.00;100249.44;4883711;29;20139;-95
2023/11/20 09:12:02;;;;;;;9.05;0.70;;;;;;;10.26;100.00;100247.78;4869070;29;20036;-96
2023/11/20 09:14:28;;;;;;;7.68;1.13;;;;;;;10.27;100.00;100259.19;4886368;29;20047;-96
2023/11/20 09:16:54;;;;;;;5.78;0.68;;;;;;;10.27;100.00;100253.91;4881326;29;20024;-96
2023/11/20 09:19:20;;;;;;;7.32;0.75;;;;;;;10.24;100.00;100265.56;4900139;29;20040;-95
2023/11/20 09:21:46;;;;;;;8.77;1.48;;;;;;;10.26;100.00;100257.50;4873267;29;20043;-95
2023/11/20 09:27:01;;;;;;;4.30;0.98;;;;;;;10.24;100.00;100243.63;4880816;29;20053;-96
2023/11/20 09:35:15;;;;;;;5.32;0.50;;;;;;;10.37;100.00;100265.25;5094993;23;20049;-96
2023/11/20 09:38:06;;;;;;;7.13;1.20;;;;;;;10.36;100.00;100289.16;4901354;29;20052;-96
2023/11/20 09:40:40;;;;;;;8.00;0.98;;;;;;;10.34;100.00;100269.97;4884810;29;20041;-96
2023/11/20 09:43:13;;;;;;;7.80;0.93;;;;;;;10.34;100.00;100283.19;4875499;29;20045;-96
2023/11/20 09:45:44;;;;;;;6.93;0.90;;;;;;;10.39;100.00;100291.50;4881097;29;20037;-96
2023/11/20 09:48:13;;;;;;;9.25;1.33;;;;;;;10.40;100.00;100294.00;4872467;29;20048;-96
2023/11/20 09:50:41;;;;;;;8.48;1.13;;;;;;;10.44;100.00;100297.19;4862187;29;20064;-96
2023/11/20 09:53:10;;;;;;;5.93;0.98;;;;;;;10.48;100.00;100310.97;4896444;29;20043;-96
2023/11/20 09:55:38;;;;;;;7.80;0.93;;;;;;;10.40;100.00;100304.56;4872853;29;20579;-96
2023/11/20 10:01:09;;;;;;;4.60;0.80;;;;;;;10.48;100.00;100314.44;5442905;23;20057;-96
2023/11/20 10:03:39;;;;;;;4.22;0.68;;;;;;;10.45;100.00;100335.03;4892082;29;20036;-96
2023/11/20 10:06:27;;;;;;;5.70;0.50;;;;;;;10.41;100.00;100316.00;4883663;29;20024;-96
2023/11/20 10:08:55;;;;;;;8.23;0.93;;;;;;;10.45;100.00;100335.03;4869125;29;20060;-96
2023/11/20 10:11:22;;;;;;;4.35;1.00;;;;;;;10.45;100.00;100335.03;4854031;29;20745;-96
2023/11/20 10:13:48;;;;;;;6.18;0.63;;;;;;;10.39;100.00;100331.97;4880544;29;20143;-96
2023/11/20 10:16:24;;;;;;;6.18;0.85;;;;;;;10.45;100.00;100335.84;4898210;29;20037;-96
2023/11/20 10:18:54;;;;;;;7.35;1.05;;;;;;;10.39;100.00;100333.78;4877113;29;20133;-96
2023/11/20 10:21:25;;;;;;;7.43;1.08;;;;;;;10.39;100.00;100337.28;4860748;29;20044;-96
2023/11/20 10:23:54;;;;;;;11.25;1.10;;;;;;;10.42;100.00;100341.41;4878686;29;20032;-96
2023/11/20 10:26:24;;;;;;;5.95;0.95;;;;;;;10.42;100.00;100352.00;4878068;29;20045;-96
2023/11/20 10:28:55;;;;;;;5.78;0.70;;;;;;;10.43;100.00;100370.34;4853379;29;20124;-96
2023/11/20 10:31:27;;;;;;;6.20;0.70;;;;;;;10.40;100.00;100344.22;4909342;29;20037;-96
2023/11/20 10:34:10;;;;;;;6.10;1.17;;;;;;;10.39;100.00;100357.56;4877154;29;20048;-96
2023/11/20 10:36:38;;;;;;;4.28;0.85;;;;;;;10.32;100.00;100357.31;4902763;29;20056;-96
2023/11/20 10:39:07;;;;;;;4.75;0.93;;;;;;;10.36;100.00;100365.78;4868827;29;20547;-96
2023/11/20 10:41:33;;;;;;;6.68;1.00;;;;;;;10.41;100.00;100372.31;4895282;29;20080;-96
2023/11/20 10:43:59;;;;;;;7.82;1.27;;;;;;;10.41;100.00;100363.53;4890715;29;20037;-96
2023/11/20 10:46:26;;;;;;;5.85;0.93;;;;;;;10.41;100.00;100369.69;4866482;29;20032;-96
2023/11/20 10:48:52;;;;;;;5.22;0.60;;;;;;;10.38;100.00;100377.06;4895392;29;20076;-96
2023/11/20 10:51:23;;;;;;;3.38;0.77;;;;;;;10.39;100.00;100379.53;4863769;29;20064;-96
2023/11/20 10:54:02;;;;;;;5.82;1.20;;;;;;;10.41;100.00;100382.03;4880519;29;20119;-93
2023/11/20 10:56:32;;;;;;;7.55;0.80;;;;;;;10.40;100.00;100386.47;4877468;29;20036;-96
2023/11/20 10:59:05;;;;;;;6.65;0.85;;;;;;;10.30;100.00;100375.13;4855259;29;20036;-96
2023/11/20 11:01:34;;;;;;;5.15;0.90;;;;;;;10.32;100.00;100383.72;4888745;29;20052;-96
2023/11/20 11:04:01;;;;;;;6.60;0.95;;;;;;;10.30;100.00;100390.97;4861602;29;20031;-96
2023/11/20 11:06:32;;;;;;;8.02;0.65;;;;;;;10.32;100.00;100402.22;4868678;29;20029;-94
2023/11/20 11:09:01;;;;;;;5.85;0.80;;;;;;;10.30;100.00;100396.28;4868732;29;20033;-93
2023/11/20 11:11:28;;;;;;;8.73;0.75;;;;;;;10.29;100.00;100392.78;4867935;29;20041;-96
2023/11/20 11:13:54;;;;;;;11.23;1.33;;;;;;;10.20;100.00;100388.38;4889093;29;20036;-96
2023/11/20 11:16:29;;;;;;;7.50;1.00;;;;;;;10.26;100.00;100393.06;4906924;29;20151;-96
2023/11/20 11:19:08;;;;;;;5.30;1.02;;;;;;;10.31;100.00;100397.91;4887031;29;20045;-96
2023/11/20 11:21:59;;;;;;;6.47;2.00;;;;;;;10.25;100.00;100398.50;4887417;29;20068;-96
2023/11/20 11:24:31;;;;;;;12.45;2.00;;;;;;;10.26;100.00;100394.88;4861450;29;20045;-96
2023/11/20 11:27:02;;;;;;;8.15;1.15;;;;;;;10.29;100.00;100397.22;4874729;29;20028;-96
2023/11/20 11:29:38;;;;;;;7.28;1.50;;;;;;;10.32;100.00;100396.94;4892013;29;20036;-96
2023/11/20 11:32:25;;;;;;;8.00;1.65;;;;;;;10.38;100.00;100391.06;4890378;29;20076;-96
2023/11/20 11:35:19;;;;;;;13.73;1.88;;;;;;;10.33;100.00;100398.63;4902635;29;20048;-96
2023/11/20 11:38:17;;;;;;;5.82;1.13;;;;;;;10.38;100.00;100387.63;4860596;29;20180;-95
2023/11/20 11:40:43;;;;;;;9.38;1.75;;;;;;;10.34;100.00;100387.06;4891578;29;20044;-96
2023/11/20 11:43:19;;;;;;;11.75;1.83;;;;;;;10.41;100.00;100387.31;4853545;29;20044;-95
2023/11/20 11:45:48;;;;;;;8.40;1.45;;;;;;;10.42;100.00;100389.81;4873148;29;20041;-93
2023/11/20 11:48:14;;;;;;;11.70;2.03;;;;;;;10.45;100.00;100382.59;4846370;29;20029;-95
2023/11/20 11:50:40;;;;;;;9.02;1.13;;;;;;;10.44;100.00;100387.03;4864701;29;20108;-96
2023/11/20 11:53:10;;;;;;;6.20;1.30;;;;;;;10.56;100.00;100397.47;4903054;29;20040;-96
2023/11/20 11:55:41;;;;;;;8.13;1.13;;;;;;;10.61;100.00;100393.41;4882226;29;20064;-96
2023/11/20 11:58:13;;;;;;;5.55;1.30;;;;;;;10.65;100.00;100417.72;4893323;29;20036;-95
2023/11/20 12:00:42;;;;;;;9.75;1.30;;;;;;;10.56;100.00;100397.47;4864534;29;20053;-96
2023/11/20 12:03:08;;;;;;;7.60;0.77;;;;;;;10.52;100.00;100416.25;4874052;29;20036;-96
2023/11/20 12:05:57;;;;;;;6.10;1.30;;;;;;;10.65;100.00;100412.44;4889028;29;20483;-96
2023/11/20 12:08:24;;;;;;;6.82;1.10;;;;;;;10.59;100.00;100402.47;4894290;29;20040;-96
2023/11/20 12:11:05;;;;;;;8.45;1.27;;;;;;;10.64;100.00;100414.25;4893409;29;20032;-96
2023/11/20 12:13:34;;;;;;;7.22;1.02;;;;;;;10.57;100.00;100407.88;4881203;29;20043;-96
2023/11/20 12:16:13;;;;;;;8.52;1.30;;;;;;;10.65;100.00;100415.09;4965979;23;20057;-93
2023/11/20 12:18:44;;;;;;;12.90;1.73;;;;;;;10.64;100.00;100411.59;4864343;29;20040;-93
2023/11/20 12:21:13;;;;;;;9.60;1.42;;;;;;;10.61;100.00;100409.25;5007228;23;20053;-96
2023/11/20 12:23:55;;;;;;;11.98;1.30;;;;;;;10.61;100.00;100421.63;4866313;29;20036;-95
2023/11/20 12:26:59;;;;;;;6.80;1.00;;;;;;;10.57;100.00;100429.03;4874875;29;20041;-96
2023/11/20 12:30:26;;;;;;;4.10;0.95;;;;;;;10.60;100.00;100441.13;4910793;29;20381;-93
2023/11/20 12:33:23;;;;;;;8.48;1.52;;;;;;;10.57;100.00;100457.25;4893592;29;20098;-94
2023/11/20 12:35:55;;;;;;;9.00;1.60;;;;;;;10.60;100.00;100456.97;4852523;29;20044;-96
2023/11/20 12:38:43;;;;;;;8.30;1.35;;;;;;;10.64;100.00;100447.75;4890749;29;20051;-96
2023/11/20 12:41:43;;;;;;;9.00;1.27;;;;;;;10.61;100.00;100451.53;4863311;29;20037;-95
2023/11/20 12:44:29;;;;;;;8.85;1.98;;;;;;;10.58;100.00;100466.84;4896449;29;20441;-94
2023/11/20 12:47:21;;;;;;;11.00;1.35;;;;;;;10.60;100.00;100455.16;4890721;29;21386;-95
2023/11/20 12:49:57;;;;;;;9.68;1.67;;;;;;;10.58;100.00;100453.63;4901045;29;20037;-96
2023/11/20 12:53:36;;;;;;;;;;;;;;;;;;;;;
2023/11/20 12:57:01;;;;;;;8.82;1.65;;;;;;;10.60;100.00;100463.09;4889809;29;20029;-95
2023/11/20 12:59:52;;;;;;;7.68;1.50;;;;;;;10.64;100.00;100467.09;4879506;29;20053;-92
2023/11/20 13:02:25;;;;;;;6.88;0.98;;;;;;;10.70;100.00;100473.66;4865138;29;20033;-92
2023/11/20 13:05:01;;;;;;;12.70;1.88;;;;;;;10.71;100.00;100483.25;4864980;29;20057;-96
2023/11/20 13:23:36;;;;;;;4.43;1.02;;;;;;;10.67;100.00;100500.38;4962760;23;20075;-94
2023/11/20 13:26:17;;;;;;;10.23;1.40;;;;;;;10.73;100.00;100498.97;4871141;29;20036;-96
2023/11/20 14:28:56;;;;;;;;;;;;;;;;;;;;;
2023/11/20 14:32:43;;;;;;;9.40;1.55;;;;;;;10.61;100.00;100574.94;4892813;29;20123;-96
2023/11/20 14:35:12;;;;;;;10.60;1.42;;;;;;;10.60;100.00;100579.41;4879487;29;20034;-96
2023/11/20 14:41:16;;;;;;;7.70;1.30;;;;;;;10.65;100.00;100586.91;4888569;29;20052;-96
2023/11/20 14:44:35;;;;;;;6.63;1.80;;;;;;;10.64;100.00;100585.22;4887591;29;20052;-96
2023/11/20 14:47:23;;;;;;;7.30;1.23;;;;;;;10.57;100.00;100603.47;4825721;29;20046;-96
2023/11/20 14:50:23;;;;;;;9.30;0.90;;;;;;;10.50;100.00;100605.00;4913288;29;20060;-96
2023/11/20 14:53:48;;;;;;;6.88;1.20;;;;;;;10.51;100.00;100607.50;4872723;29;20048;-96
2023/11/20 14:56:17;;;;;;;6.20;1.00;;;;;;;10.45;100.00;100601.94;4893370;29;20132;-96
2023/11/20 14:58:59;;;;;;;7.70;1.42;;;;;;;10.47;100.00;100611.41;4855819;29;20044;-96
2023/11/20 15:05:46;;;;;;;5.65;0.80;;;;;;;10.43;100.00;100626.66;4912999;28;20048;-96
2023/11/20 15:09:21;;;;;;;8.82;1.10;;;;;;;10.37;100.00;100626.38;4856817;29;20057;-96
2023/11/20 15:13:03;;;;;;;12.38;1.88;;;;;;;10.34;100.00;100624.00;4813452;29;20038;-96
2023/11/20 16:03:32;;;;;;;10.48;1.20;;;;;;;9.99;100.00;100674.56;4924593;23;20048;-95
2023/11/20 16:06:05;;;;;;;6.22;1.27;;;;;;;9.97;100.00;100658.00;4871601;29;20047;-96
2023/11/20 16:08:36;;;;;;;6.63;1.05;;;;;;;9.93;100.00;100677.75;5005798;23;20056;-94
2023/11/20 16:11:02;;;;;;;11.43;2.15;;;;;;;9.86;100.00;100684.53;4869058;29;20044;-94
2023/11/20 16:13:33;;;;;;;6.47;1.13;;;;;;;9.89;100.00;100689.56;4884451;23;20056;-95
2023/11/20 16:16:03;;;;;;;7.50;1.20;;;;;;;9.79;100.00;100694.78;4862683;29;20043;-94
2023/11/20 16:18:32;;;;;;;10.23;1.48;;;;;;;9.78;100.00;100701.88;4878837;29;20488;-94
2023/11/20 16:21:01;;;;;;;7.20;1.25;;;;;;;9.82;100.00;100717.44;4871194;29;20488;-95
2023/11/20 16:23:38;;;;;;;10.98;1.85;;;;;;;9.84;100.00;100721.66;4878478;29;20412;-95
2023/11/20 16:26:22;;;;;;;9.88;1.63;;;;;;;9.83;100.00;100716.47;4878398;29;20132;-95
2023/11/20 16:28:54;;;;;;;8.18;1.52;;;;;;;9.78;100.00;100735.34;4864798;29;20173;-96
2023/11/20 16:31:26;;;;;;;6.93;1.17;;;;;;;9.79;100.00;100734.41;4882063;29;20044;-95
2023/11/20 16:33:55;;;;;;;6.80;1.45;;;;;;;9.79;100.00;100740.50;4845962;29;20109;-95
2023/11/20 16:36:25;;;;;;;9.27;1.52;;;;;;;9.78;100.00;100749.38;4876527;29;20113;-94
2023/11/20 16:38:57;;;;;;;12.88;1.20;;;;;;;9.72;100.00;100747.28;4871707;29;20045;-95
2023/11/20 16:41:34;;;;;;;6.40;1.95;;;;;;;9.71;100.00;100758.81;4865797;29;20041;-96
2023/11/20 16:44:21;;;;;;;;;;;;;;;;;;;;;
2023/11/20 16:46:53;;;;;;;8.85;0.90;;;;;;;9.72;100.00;100763.13;4874950;29;20132;-93
2023/11/20 16:49:20;;;;;;;26.00;13.30;;;;;;;9.71;100.00;100773.81;4847107;29;20041;-95
2023/11/20 16:51:52;;;;;;;17.05;7.40;;;;;;;9.71;100.00;100774.66;4851006;29;20044;-95
2023/11/20 16:54:47;;;;;;;23.73;12.63;;;;;;;9.83;100.00;100782.47;4879386;29;20105;-95
2023/11/20 16:57:26;;;;;;;10.27;4.93;;;;;;;9.73;100.00;100771.88;4865430;29;20128;-94
2023/11/20 16:59:58;;;;;;;14.63;3.63;;;;;;;9.75;100.00;100775.19;4860741;29;20036;-95
2023/11/20 17:02:25;;;;;;;6.15;1.63;;;;;;;9.73;100.00;100785.91;4863958;29;20052;-94
2023/11/20 17:04:51;;;;;;;6.22;1.65;;;;;;;9.67;100.00;100802.25;4872880;29;20373;-94
2023/11/20 17:07:21;;;;;;;10.00;2.50;;;;;;;9.64;100.00;100789.31;4858309;29;20037;-94
2023/11/20 17:10:08;;;;;;;;;;;;;;;;;;;;;
2023/11/20 17:13:27;;;;;;;8.07;1.63;;;;;;;9.72;100.00;100817.69;4878566;29;20068;-95
2023/11/20 17:16:15;;;;;;;9.25;2.17;;;;;;;9.65;100.00;100818.22;4891203;29;20070;-95
2023/11/20 17:18:42;;;;;;;5.40;1.23;;;;;;;9.68;100.00;100823.25;4881291;29;20403;-94
2023/11/20 17:21:11;;;;;;;12.02;2.60;;;;;;;9.61;100.00;100816.81;4864578;29;20049;-94
2023/11/20 17:30:53;;;;;;;5.30;1.05;;;;;;;9.59;100.00;100839.03;4889281;29;20052;-93
2023/11/20 17:37:55;;;;;;;;;;;;;;;;;;;;;
2023/11/20 17:41:33;;;;;;;16.23;2.88;;;;;;;9.64;100.00;100856.16;4895049;29;20040;-94
2023/11/20 17:44:02;;;;;;;15.52;2.38;;;;;;;9.60;100.00;100848.63;4871600;29;20132;-94
2023/11/20 17:47:11;;;;;;;13.55;1.65;;;;;;;9.51;100.00;100858.13;4877130;29;20048;-93
2023/11/20 17:50:22;;;;;;;7.45;1.38;;;;;;;9.51;100.00;100866.03;4881189;29;20070;-94
2023/11/20 17:56:54;;;;;;;7.67;1.63;;;;;;;9.51;100.00;100888.00;4868954;29;20036;-95
2023/11/20 17:59:23;;;;;;;9.27;1.70;;;;;;;9.53;100.00;100890.50;4875477;29;20799;-94
2023/11/20 18:01:55;;;;;;;9.57;1.20;;;;;;;9.45;100.00;100895.56;4865956;29;20032;-94
2023/11/20 18:04:23;;;;;;;7.88;1.20;;;;;;;9.46;100.00;100891.97;4865788;29;20127;-94
2023/11/20 18:06:53;;;;;;;9.77;2.03;;;;;;;9.38;100.00;100901.34;4878475;29;20058;-94
2023/11/20 18:09:30;;;;;;;11.98;2.00;;;;;;;9.40;100.00;100917.06;4877269;29;20048;-96
2023/11/20 18:25:15;;;;;;;9.33;1.50;;;;;;;9.39;100.00;100932.06;5975989;23;20115;-95
2023/11/20 18:27:45;;;;;;;13.80;2.22;;;;;;;9.28;100.00;100932.09;4840661;29;20468;-96
2023/11/20 18:30:33;;;;;;;9.60;1.95;;;;;;;9.34;100.00;100944.78;4833187;29;20146;-96
2023/11/20 18:33:30;;;;;;;5.95;1.92;;;;;;;9.28;100.00;100948.75;4850200;29;20040;-96
2023/11/20 18:36:00;;;;;;;12.02;2.30;;;;;;;9.33;100.00;100956.31;4835123;29;20072;-96
2023/11/20 18:38:43;;;;;;;10.50;2.42;;;;;;;9.32;100.00;100956.44;4867142;29;20030;-96
2023/11/20 18:44:15;;;;;;;9.18;2.90;;;;;;;9.27;100.00;100970.00;4867584;29;20154;-96
2023/11/20 18:46:46;;;;;;;9.52;2.25;;;;;;;9.18;100.00;100948.66;4851039;29;20197;-95
2023/11/20 18:49:27;;;;;;;10.35;2.50;;;;;;;9.26;100.00;100979.69;4860754;29;20045;-96
2023/11/20 18:55:24;;;;;;;12.57;5.32;;;;;;;9.21;100.00;101002.94;4843999;29;20038;-96
2023/11/20 18:57:56;;;;;;;10.85;2.55;;;;;;;9.21;100.00;101008.22;4833925;29;20061;-96
2023/11/20 19:00:53;;;;;;;7.72;1.63;;;;;;;9.11;100.00;101010.75;4847890;29;20057;-96
2023/11/20 19:03:28;;;;;;;6.75;1.45;;;;;;;9.16;100.00;101015.66;4843035;29;20042;-96
2023/11/20 19:06:01;;;;;;;6.82;1.45;;;;;;;9.16;100.00;101015.66;4843202;29;20076;-96
2023/11/20 19:08:41;;;;;;;11.45;1.50;;;;;;;9.17;100.00;101035.81;4820017;29;20048;-96
2023/11/20 19:11:11;;;;;;;8.52;1.58;;;;;;;9.17;100.00;101025.25;4847111;29;20526;-96
2023/11/20 19:14:14;;;;;;;12.93;1.88;;;;;;;9.12;100.00;101028.25;4843795;29;20113;-96
2023/11/20 19:16:44;;;;;;;6.65;1.25;;;;;;;9.14;100.00;101041.34;4823071;29;20489;-96
2023/11/20 19:19:19;;;;;;;13.15;2.05;;;;;;;9.11;100.00;101041.56;4833366;29;20173;-96
2023/11/20 19:22:23;;;;;;;10.80;1.63;;;;;;;9.07;100.00;101040.97;4850521;29;20029;-94
2023/11/20 19:25:00;;;;;;;9.10;1.38;;;;;;;9.05;100.00;101061.31;4802229;29;20054;-96
2023/11/20 19:27:43;;;;;;;15.50;2.65;;;;;;;9.14;100.00;101057.16;4808538;29;20102;-96
2023/11/20 19:30:22;;;;;;;8.87;1.90;;;;;;;9.13;100.00;101066.00;4836052;29;20089;-96
2023/11/20 19:32:50;;;;;;;12.38;2.45;;;;;;;9.03;100.00;101058.81;4835012;29;20082;-96
2023/11/20 19:35:40;;;;;;;10.02;1.27;;;;;;;9.02;100.00;101057.16;4834195;29;20485;-95
2023/11/20 19:38:25;;;;;;;7.13;1.30;;;;;;;9.04;100.00;101067.56;4822646;29;20041;-96
2023/11/20 19:40:59;;;;;;;7.28;1.23;;;;;;;9.02;100.00;101058.94;4850265;29;20077;-96
2023/11/20 19:43:26;;;;;;;7.50;1.95;;;;;;;8.91;100.00;101071.16;4851399;29;20048;-96
2023/11/20 19:46:06;;;;;;;8.40;1.13;;;;;;;8.91;100.00;101054.50;4838053;29;20396;-96
2023/11/20 19:48:53;;;;;;;5.28;1.30;;;;;;;8.84;100.00;101062.03;4843200;29;20456;-96
2023/11/20 19:51:32;;;;;;;;;;;;;;;8.86;100.00;101059.28;4835312;29;20489;-96
2023/11/20 19:54:08;;;;;;;6.30;0.93;;;;;;;8.88;100.00;101054.72;4847489;29;19939;-95
2023/11/20 20:00:07;;;;;;;14.82;1.35;;;;;;;8.81;100.00;101078.06;4836925;29;20136;-96
2023/11/20 20:02:37;;;;;;;8.80;1.63;;;;;;;8.84;100.00;101071.75;4849060;29;20046;-96
2023/11/20 20:05:06;;;;;;;7.65;1.75;;;;;;;8.75;100.00;101076.75;4832147;29;20041;-96
2023/11/20 20:07:47;;;;;;;;;;;;;;;;;;;;;
2023/11/20 20:10:31;;;;;;;11.45;1.63;;;;;;;8.75;100.00;101099.63;4846354;29;20069;-96
2023/11/20 20:13:00;;;;;;;11.52;2.47;;;;;;;8.64;100.00;101060.91;4826185;29;20173;-96
2023/11/20 20:15:28;;;;;;;10.57;1.38;;;;;;;8.71;100.00;101083.22;4822365;29;20050;-93
2023/11/20 20:18:00;;;;;;;10.30;1.65;;;;;;;8.71;100.00;101085.03;4844530;29;20029;-96
2023/11/20 20:20:28;;;;;;;13.32;1.70;;;;;;;8.67;100.00;101079.97;4826305;29;20045;-96
2023/11/20 20:22:59;;;;;;;8.65;2.35;;;;;;;8.64;100.00;101100.44;4843006;29;20068;-85
2023/11/20 20:25:53;;;;;;;9.13;1.55;;;;;;;8.70;100.00;101110.53;4831419;29;20102;-96